Portada
METAR-TAF:

METAR-TAF

Aeropuertos :

Aeropuerto de Kōchi Ryōma

Kochi, Japón

latitud: 33-32N, longitud: 133-40E, altitud: 7 m

Observación

El informe se hizo hace 18 minutos, a las 04:00 UTC
Viento 9 kt del sur-suroeste
Temperatura 9°C
Humedad 43%
Presión 1018 hPa
Visibilidad 10 km o más
Escasas nubes a una altura de 3000 ft

METAR: RJOK 180400Z 21009KT 9999 FEW030 09/M03 Q1018

Hora: 13:18 (04:18 UTC)

Pronóstico

El informe se hizo hace 5 horas y 13 minutos, a las 23:05 UTC
Pronóstico válido del 18 a las 00 UTC al 19 a las 06 UTC
Viento 7 kt del suroeste
Visibilidad 10 km o más
Escasas nubes a una altura de 3000 ft
Nubes dispersas a una altura de 5000 ft
Evolucionando progresivamente
del 18 a las 21 UTC al 19 a las 00 UTC
Viento 19 kt del norte

TAF: RJOK 172305Z 1800/1906 23007KT 9999 FEW030 SCT050 BECMG 1821/1900 36019KT

Observaciones y pronósticos meteorológicos de más de 4000 aeropuertos (mensajes METAR y TAF).

Los puntos amarillos y rojos representan las estaciones disponibles.

Ponga el ratón en el punto deseado para ver el nombre de la estación.

Haga clic para ver las observaciones y los pronósticos meteorológicos.

Para cambiar el mapa : haga clic en los botones verdes con una cruz de color negro para hacer un zoom, en el botón verde con un guión para alejar o en las flechas verdes para mapas adyacentes.


METAR-TAF: